createdAt,value
2018-07-03T00:01:31.288Z,23.20
2018-07-03T00:03:58.207Z,23.10
2018-07-03T00:06:25.919Z,23.10
2018-07-03T00:08:52.753Z,23.10
2018-07-03T00:11:19.479Z,23.10
2018-07-03T00:16:18.023Z,23.00
2018-07-03T00:18:45.466Z,23.00
2018-07-03T00:21:12.954Z,23.00
2018-07-03T00:23:41.116Z,22.90
2018-07-03T00:28:35.788Z,22.90
2018-07-03T00:31:02.618Z,22.90
2018-07-03T00:33:30.100Z,22.80
2018-07-03T00:35:58.012Z,22.80
2018-07-03T00:38:25.390Z,22.80
2018-07-03T00:40:52.865Z,22.80
2018-07-03T00:43:19.758Z,22.70
2018-07-03T00:45:47.198Z,22.70
2018-07-03T00:48:14.584Z,22.70
2018-07-03T00:50:41.326Z,22.70
2018-07-03T00:53:08.126Z,22.70
2018-07-03T00:55:34.942Z,22.60
2018-07-03T00:58:01.686Z,22.60
2018-07-03T01:00:28.334Z,22.60
2018-07-03T01:02:54.984Z,22.50
2018-07-03T01:05:21.632Z,22.50
2018-07-03T01:07:48.941Z,22.50
2018-07-03T01:10:15.685Z,22.50
2018-07-03T01:12:42.473Z,22.50
2018-07-03T01:17:36.417Z,22.40
2018-07-03T01:20:03.255Z,22.40
2018-07-03T01:22:30.787Z,22.40
2018-07-03T01:24:57.703Z,22.30
2018-07-03T01:27:24.547Z,22.30
2018-07-03T01:29:51.295Z,22.30
2018-07-03T01:32:17.983Z,22.30
2018-07-03T01:34:44.827Z,22.20
2018-07-03T01:37:12.551Z,22.20
2018-07-03T01:39:39.419Z,22.20
2018-07-03T01:42:06.394Z,22.20
2018-07-03T01:44:33.561Z,22.10
2018-07-03T01:47:00.293Z,22.10
2018-07-03T01:49:27.129Z,22.10
2018-07-03T01:51:54.033Z,22.10
2018-07-03T01:54:21.423Z,22.00
2018-07-03T01:56:48.187Z,22.00
2018-07-03T01:59:14.987Z,22.00
2018-07-03T02:01:42.190Z,21.90
2018-07-03T02:04:09.046Z,21.90
2018-07-03T02:09:03.737Z,21.90
2018-07-03T02:11:30.636Z,21.90
2018-07-03T02:13:58.052Z,21.80
2018-07-03T02:16:24.892Z,21.80
2018-07-03T02:21:19.278Z,21.80
2018-07-03T02:23:46.087Z,21.70
2018-07-03T02:26:13.004Z,21.70
2018-07-03T02:28:39.878Z,21.70
2018-07-03T02:31:07.292Z,21.70
2018-07-03T02:33:34.196Z,21.70
2018-07-03T02:36:01.083Z,21.60
2018-07-03T02:38:28.467Z,21.60
2018-07-03T02:40:55.226Z,21.60
2018-07-03T02:43:22.309Z,21.60
2018-07-03T02:45:50.388Z,21.50
2018-07-03T02:48:17.380Z,21.50
2018-07-03T02:50:44.232Z,21.50
2018-07-03T02:53:11.103Z,21.40
2018-07-03T02:55:38.032Z,21.40
2018-07-03T02:58:05.882Z,21.40
2018-07-03T03:00:32.753Z,21.40
2018-07-03T03:03:01.024Z,21.40
2018-07-03T03:05:28.582Z,21.30
2018-07-03T03:07:55.548Z,21.30
2018-07-03T03:10:22.388Z,21.30
2018-07-03T03:12:50.124Z,21.20
2018-07-03T03:15:17.210Z,21.20
2018-07-03T03:17:43.957Z,21.20
2018-07-03T03:20:10.890Z,21.20
2018-07-03T03:22:37.744Z,21.20
2018-07-03T03:25:04.483Z,21.10
2018-07-03T03:27:31.452Z,21.10
2018-07-03T03:29:59.021Z,21.10
2018-07-03T03:32:25.822Z,21.10
2018-07-03T03:34:52.963Z,21.00
2018-07-03T03:37:19.789Z,21.00
2018-07-03T03:39:47.175Z,21.00
2018-07-03T03:42:14.675Z,21.00
2018-07-03T03:44:41.441Z,20.90
2018-07-03T03:47:08.225Z,20.90
2018-07-03T03:49:35.071Z,20.90
2018-07-03T03:52:02.681Z,20.90
2018-07-03T03:54:29.380Z,20.80
2018-07-03T03:56:57.097Z,20.80
2018-07-03T03:59:24.571Z,20.90
2018-07-03T04:01:51.993Z,20.80
2018-07-03T04:04:19.555Z,20.80
2018-07-03T04:06:46.421Z,20.80
2018-07-03T04:09:13.177Z,20.70
2018-07-03T04:11:41.507Z,20.70
2018-07-03T04:14:08.395Z,20.70
2018-07-03T04:16:35.141Z,20.70
2018-07-03T04:19:02.130Z,20.70
2018-07-03T04:21:29.015Z,20.70
2018-07-03T04:23:55.922Z,20.60
2018-07-03T04:26:22.958Z,20.60
2018-07-03T04:28:50.335Z,20.60
2018-07-03T04:34:06.099Z,20.50
2018-07-03T04:36:33.891Z,20.60
2018-07-03T04:39:00.900Z,20.50
2018-07-03T04:41:27.779Z,20.50
2018-07-03T04:43:54.512Z,20.50
2018-07-03T04:46:21.275Z,20.50
2018-07-03T04:48:48.422Z,20.40
2018-07-03T04:51:15.264Z,20.40
2018-07-03T04:53:42.220Z,20.50
2018-07-03T04:56:09.022Z,20.40
2018-07-03T04:58:37.280Z,20.40
2018-07-03T05:01:04.192Z,20.40
2018-07-03T05:03:30.963Z,20.30
2018-07-03T05:05:57.754Z,20.40
2018-07-03T05:08:24.726Z,20.40
2018-07-03T05:10:52.171Z,20.40
2018-07-03T05:13:18.984Z,20.30
2018-07-03T05:15:45.707Z,20.30
2018-07-03T05:18:12.559Z,20.30
2018-07-03T05:20:39.552Z,20.30
2018-07-03T05:23:06.310Z,20.30
2018-07-03T05:25:33.953Z,20.30
2018-07-03T05:28:00.844Z,20.20
2018-07-03T05:30:27.887Z,20.20
2018-07-03T05:32:55.320Z,20.20
2018-07-03T05:35:22.096Z,20.20
2018-07-03T05:37:49.399Z,20.20
2018-07-03T05:40:16.261Z,20.20
2018-07-03T05:42:43.422Z,20.20
2018-07-03T05:45:10.660Z,20.20
2018-07-03T05:47:37.550Z,20.20
2018-07-03T05:50:04.315Z,20.20
2018-07-03T05:52:31.202Z,20.30
2018-07-03T05:54:58.671Z,20.30
2018-07-03T05:57:25.375Z,20.30
2018-07-03T05:59:52.282Z,20.30
2018-07-03T06:02:19.259Z,20.30
2018-07-03T06:04:46.083Z,20.30
2018-07-03T06:07:12.830Z,20.40
2018-07-03T06:09:40.281Z,20.40
2018-07-03T06:12:07.820Z,20.40
2018-07-03T06:14:34.555Z,20.40
2018-07-03T06:17:01.325Z,20.50
2018-07-03T06:19:29.283Z,20.40
2018-07-03T06:21:56.488Z,20.50
2018-07-03T06:24:23.557Z,20.60
2018-07-03T06:26:51.523Z,20.60
2018-07-03T06:29:18.241Z,20.60
2018-07-03T06:31:45.525Z,20.70
2018-07-03T06:34:12.471Z,20.70
2018-07-03T06:36:40.305Z,20.70
2018-07-03T06:39:07.658Z,20.70
2018-07-03T06:41:34.444Z,20.80
2018-07-03T06:44:01.268Z,20.80
2018-07-03T06:46:28.126Z,20.90
2018-07-03T06:48:54.847Z,20.50
2018-07-03T06:51:21.606Z,20.90
2018-07-03T06:53:49.478Z,21.00
2018-07-03T06:56:16.280Z,21.00
2018-07-03T06:58:42.996Z,21.10
2018-07-03T07:01:09.725Z,21.10
2018-07-03T07:03:37.404Z,21.20
2018-07-03T07:06:04.246Z,21.20
2018-07-03T07:08:31.585Z,21.30
2018-07-03T07:10:58.525Z,21.30
2018-07-03T07:13:25.338Z,21.40
2018-07-03T07:15:52.043Z,21.50
2018-07-03T07:18:19.745Z,21.50
2018-07-03T07:23:13.918Z,21.60
2018-07-03T07:25:40.808Z,21.70
2018-07-03T07:28:07.766Z,21.70
2018-07-03T07:30:35.700Z,21.80
2018-07-03T07:33:02.388Z,21.80
2018-07-03T07:35:29.192Z,21.90
2018-07-03T07:37:56.036Z,22.00
2018-07-03T07:40:22.704Z,22.00
2018-07-03T07:45:16.927Z,22.20
2018-07-03T07:47:43.716Z,22.20
2018-07-03T07:50:11.886Z,22.30
2018-07-03T07:52:40.984Z,22.40
2018-07-03T07:55:07.978Z,22.40
2018-07-03T07:57:35.662Z,22.50
2018-07-03T08:00:02.809Z,22.50
2018-07-03T08:02:29.609Z,22.60
2018-07-03T08:04:56.575Z,22.70
2018-07-03T08:07:23.319Z,22.70
2018-07-03T08:09:50.137Z,22.80
2018-07-03T08:12:17.012Z,22.80
2018-07-03T08:14:43.945Z,22.90
2018-07-03T08:17:10.979Z,23.00
2018-07-03T08:19:37.813Z,23.00
2018-07-03T08:22:04.781Z,23.10
2018-07-03T08:24:32.267Z,23.10
2018-07-03T08:26:59.267Z,23.20
2018-07-03T08:29:26.088Z,23.20
2018-07-03T08:31:52.792Z,23.30
2018-07-03T08:34:19.698Z,23.40
2018-07-03T08:36:46.527Z,23.40
2018-07-03T08:41:41.776Z,23.50
2018-07-03T08:44:09.133Z,23.60
2018-07-03T08:46:35.880Z,23.70
2018-07-03T08:49:03.572Z,23.80
2018-07-03T08:51:30.581Z,23.80
2018-07-03T08:56:24.919Z,23.90
2018-07-03T08:58:52.466Z,24.00
2018-07-03T09:01:19.322Z,24.00
2018-07-03T09:03:46.305Z,24.10
2018-07-03T09:06:13.056Z,24.20
2018-07-03T09:08:39.862Z,24.20
2018-07-03T09:11:07.172Z,24.30
2018-07-03T09:13:33.948Z,24.30
2018-07-03T09:16:00.709Z,24.40
2018-07-03T09:18:27.542Z,24.50
2018-07-03T09:20:54.408Z,24.50
2018-07-03T09:23:21.108Z,24.60
2018-07-03T09:25:48.731Z,24.60
2018-07-03T09:28:15.486Z,24.70
2018-07-03T09:30:43.368Z,24.80
2018-07-03T09:33:10.344Z,24.80
2018-07-03T09:35:37.575Z,24.90
2018-07-03T09:38:04.321Z,24.90
2018-07-03T09:42:58.549Z,25.00
2018-07-03T09:45:25.287Z,25.10
2018-07-03T09:47:52.028Z,25.20
2018-07-03T09:50:18.773Z,25.20
2018-07-03T09:52:45.472Z,25.20
2018-07-03T09:55:12.245Z,25.30
2018-07-03T10:00:06.599Z,25.40
2018-07-03T10:02:33.305Z,25.50
2018-07-03T10:05:00.116Z,25.50
2018-07-03T10:07:26.833Z,25.60
2018-07-03T10:09:53.617Z,25.60
2018-07-03T10:12:20.481Z,25.70
2018-07-03T10:17:14.640Z,25.70
2018-07-03T10:19:42.627Z,25.80
2018-07-03T10:22:09.647Z,25.80
2018-07-03T10:24:36.941Z,25.90
2018-07-03T10:27:03.776Z,26.00
2018-07-03T10:29:30.480Z,26.00
2018-07-03T10:31:57.924Z,26.00
2018-07-03T10:34:24.683Z,26.10
2018-07-03T10:36:51.564Z,26.20
2018-07-03T10:39:18.268Z,26.20
2018-07-03T10:41:45.757Z,26.20
2018-07-03T10:44:14.054Z,26.30
2018-07-03T10:46:40.728Z,26.30
2018-07-03T10:49:07.490Z,26.30
2018-07-03T10:51:34.209Z,26.40
2018-07-03T10:54:01.034Z,26.40
2018-07-03T10:56:27.821Z,26.50
2018-07-03T10:58:54.613Z,26.50
2018-07-03T11:01:21.319Z,26.60
2018-07-03T11:03:48.044Z,26.60
2018-07-03T11:06:15.032Z,26.70
2018-07-03T11:08:41.780Z,26.70
2018-07-03T11:11:08.443Z,26.70
2018-07-03T11:13:35.130Z,26.80
2018-07-03T11:18:29.040Z,26.90
2018-07-03T11:20:55.668Z,26.90
2018-07-03T11:23:22.378Z,26.90
2018-07-03T11:25:49.047Z,27.00
2018-07-03T11:28:15.711Z,27.00
2018-07-03T11:30:42.396Z,27.10
2018-07-03T11:33:09.052Z,27.10
2018-07-03T11:35:35.735Z,27.20
2018-07-03T11:38:02.384Z,27.20
2018-07-03T11:40:29.153Z,27.30
2018-07-03T11:42:55.881Z,27.30
2018-07-03T11:45:22.490Z,27.10
2018-07-03T11:47:49.160Z,27.40
2018-07-03T11:50:15.808Z,27.40
2018-07-03T11:52:42.786Z,27.50
2018-07-03T11:55:09.468Z,27.50
2018-07-03T11:57:36.318Z,27.50
2018-07-03T12:00:03.895Z,27.40
2018-07-03T12:02:30.701Z,27.40
2018-07-03T12:04:57.485Z,27.40
2018-07-03T12:07:24.241Z,27.70
2018-07-03T12:09:50.947Z,27.70
2018-07-03T12:12:17.676Z,27.80
2018-07-03T12:14:44.377Z,27.80
2018-07-03T12:17:11.175Z,27.80
2018-07-03T12:19:38.086Z,27.90
2018-07-03T12:22:04.877Z,27.90
2018-07-03T12:24:31.701Z,27.90
2018-07-03T12:26:58.526Z,28.00
2018-07-03T12:29:25.297Z,28.00
2018-07-03T12:31:52.060Z,28.10
2018-07-03T12:34:18.791Z,28.10
2018-07-03T12:36:45.606Z,28.10
2018-07-03T12:39:12.591Z,28.20
2018-07-03T12:41:39.463Z,28.20
2018-07-03T12:44:06.477Z,28.20
2018-07-03T12:46:33.269Z,28.30
2018-07-03T12:49:00.065Z,28.30
2018-07-03T12:51:26.776Z,28.30
2018-07-03T12:53:53.488Z,28.30
2018-07-03T12:56:20.296Z,28.40
2018-07-03T12:58:47.029Z,28.40
2018-07-03T13:01:13.764Z,28.40
2018-07-03T13:03:40.538Z,28.50
2018-07-03T13:06:07.245Z,28.50
2018-07-03T13:08:33.958Z,28.50
2018-07-03T13:11:00.670Z,28.40
2018-07-03T13:13:27.421Z,28.60
2018-07-03T13:15:54.142Z,28.60
2018-07-03T13:18:22.049Z,28.60
2018-07-03T13:20:49.566Z,28.60
2018-07-03T13:25:43.672Z,28.70
2018-07-03T13:28:10.639Z,28.70
2018-07-03T13:30:37.392Z,28.40
2018-07-03T13:33:04.095Z,28.80
2018-07-03T13:40:25.395Z,28.80
2018-07-03T13:42:52.343Z,28.80
2018-07-03T13:45:19.109Z,28.90
2018-07-03T13:47:45.853Z,28.90
2018-07-03T13:50:12.628Z,28.90
2018-07-03T13:52:40.419Z,28.90
2018-07-03T13:55:07.263Z,28.90
2018-07-03T13:57:33.962Z,29.00
2018-07-03T14:00:00.749Z,29.00
2018-07-03T14:02:27.905Z,29.00
2018-07-03T14:04:54.723Z,29.00
2018-07-03T14:07:21.518Z,29.00
2018-07-03T14:09:48.256Z,29.10
2018-07-03T14:12:15.007Z,29.10
2018-07-03T14:14:41.831Z,29.10
2018-07-03T14:17:08.584Z,29.10
2018-07-03T14:19:36.051Z,29.10
2018-07-03T14:24:30.175Z,29.20
2018-07-03T14:26:57.134Z,29.20
2018-07-03T14:29:23.971Z,29.20
2018-07-03T14:31:50.851Z,29.20
2018-07-03T14:34:17.807Z,29.20
2018-07-03T14:36:44.638Z,29.20
2018-07-03T14:39:13.406Z,29.20
2018-07-03T14:41:40.250Z,29.20
2018-07-03T14:44:07.909Z,29.20
2018-07-03T14:46:35.989Z,29.20
2018-07-03T14:49:02.918Z,29.20
2018-07-03T14:51:29.905Z,29.20
2018-07-03T14:53:57.754Z,29.20
2018-07-03T14:56:24.564Z,29.10
2018-07-03T14:58:51.572Z,29.20
2018-07-03T15:01:18.378Z,29.10
2018-07-03T15:03:45.284Z,29.10
2018-07-03T15:06:12.206Z,29.10
2018-07-03T15:08:39.814Z,29.10
2018-07-03T15:11:06.710Z,29.10
2018-07-03T15:13:33.756Z,29.00
2018-07-03T15:16:00.788Z,29.00
2018-07-03T15:18:32.138Z,29.00
2018-07-03T15:21:00.210Z,29.00
2018-07-03T15:23:27.164Z,29.00
2018-07-03T15:25:54.041Z,29.00
2018-07-03T15:28:21.390Z,29.00
2018-07-03T15:30:48.822Z,29.00
2018-07-03T15:33:15.643Z,29.00
2018-07-03T15:35:42.518Z,29.00
2018-07-03T15:38:09.459Z,29.00
2018-07-03T15:40:37.147Z,29.00
2018-07-03T15:43:04.373Z,29.00
2018-07-03T15:45:31.346Z,29.00
2018-07-03T15:47:58.373Z,29.00
2018-07-03T15:50:25.178Z,29.00
2018-07-03T15:52:51.929Z,29.00
2018-07-03T15:55:19.352Z,28.90
2018-07-03T15:57:46.380Z,28.90
2018-07-03T16:00:14.823Z,28.90
2018-07-03T16:02:41.839Z,28.80
2018-07-03T16:05:10.447Z,28.80
2018-07-03T16:07:37.373Z,28.80
2018-07-03T16:10:04.105Z,28.70
2018-07-03T16:12:30.817Z,28.70
2018-07-03T16:14:57.615Z,28.70
2018-07-03T16:17:24.296Z,28.70
2018-07-03T16:22:23.866Z,28.60
2018-07-03T16:24:50.626Z,28.60
2018-07-03T16:27:17.319Z,28.50
2018-07-03T16:32:11.833Z,28.40
2018-07-03T16:34:38.510Z,28.20
2018-07-03T16:37:05.378Z,28.30
2018-07-03T16:39:32.071Z,28.30
2018-07-03T16:41:58.781Z,28.30
2018-07-03T16:44:25.497Z,28.20
2018-07-03T16:46:52.237Z,28.20
2018-07-03T16:54:15.408Z,28.10
2018-07-03T16:56:42.901Z,28.10
2018-07-03T16:59:09.879Z,28.10
2018-07-03T17:01:36.823Z,28.00
2018-07-03T17:04:03.780Z,28.00
2018-07-03T17:06:30.774Z,28.00
2018-07-03T17:08:57.658Z,27.90
2018-07-03T17:11:25.018Z,27.90
2018-07-03T17:13:52.014Z,27.80
2018-07-03T17:18:52.009Z,27.70
2018-07-03T17:21:18.918Z,27.70
2018-07-03T17:23:45.862Z,27.60
2018-07-03T17:26:12.744Z,27.60
2018-07-03T17:28:39.537Z,27.50
2018-07-03T17:31:06.941Z,27.40
2018-07-03T17:33:33.931Z,27.40
2018-07-03T17:36:00.712Z,27.30
2018-07-03T17:38:27.449Z,27.30
2018-07-03T17:40:54.831Z,27.20
2018-07-03T17:43:21.644Z,27.20
2018-07-03T17:45:48.557Z,27.10
2018-07-03T17:48:16.114Z,27.10
2018-07-03T17:50:42.831Z,27.00
2018-07-03T17:53:09.803Z,26.90
2018-07-03T17:55:36.804Z,26.90
2018-07-03T17:58:03.807Z,26.80
2018-07-03T18:00:30.906Z,26.70
2018-07-03T18:02:57.857Z,26.70
2018-07-03T18:05:25.793Z,26.70
2018-07-03T18:07:52.591Z,26.60
2018-07-03T18:10:20.466Z,26.60
2018-07-03T18:12:47.762Z,26.50
2018-07-03T18:15:14.755Z,26.50
2018-07-03T18:17:41.592Z,26.40
2018-07-03T18:20:08.380Z,26.40
2018-07-03T18:22:35.195Z,26.30
2018-07-03T18:25:07.741Z,26.30
2018-07-03T18:27:42.292Z,26.20
2018-07-03T18:30:14.475Z,26.20
2018-07-03T18:32:47.402Z,26.10
2018-07-03T18:35:23.352Z,26.10
2018-07-03T18:37:51.594Z,26.00
2018-07-03T18:40:18.416Z,26.00
2018-07-03T18:42:46.076Z,26.00
2018-07-03T18:45:12.948Z,25.90
2018-07-03T18:47:39.905Z,25.80
2018-07-03T18:50:06.740Z,25.80
2018-07-03T18:52:33.764Z,25.80
2018-07-03T18:57:28.272Z,25.70
2018-07-03T18:59:55.489Z,25.60
2018-07-03T19:02:22.909Z,25.50
2018-07-03T19:04:50.340Z,25.50
2018-07-03T19:07:17.488Z,25.50
2018-07-03T19:09:44.386Z,25.40
2018-07-03T19:12:11.977Z,25.30
2018-07-03T19:17:06.342Z,25.20
2018-07-03T19:19:33.484Z,25.20
2018-07-03T19:22:00.325Z,25.10
2018-07-03T19:24:27.093Z,25.10
2018-07-03T19:26:53.983Z,25.10
2018-07-03T19:31:48.036Z,25.00
2018-07-03T19:34:14.858Z,24.90
2018-07-03T19:36:41.823Z,24.90
2018-07-03T19:41:37.883Z,24.90
2018-07-03T19:44:04.664Z,25.00
2018-07-03T19:46:31.508Z,24.90
2018-07-03T19:48:58.461Z,24.90
2018-07-03T19:51:25.330Z,24.90
2018-07-03T19:53:52.196Z,24.90
2018-07-03T19:56:19.054Z,24.90
2018-07-03T19:58:45.897Z,24.90
2018-07-03T20:01:12.848Z,24.90
2018-07-03T20:03:40.457Z,24.90
2018-07-03T20:06:07.228Z,24.90
2018-07-03T20:08:34.101Z,24.90
2018-07-03T20:11:01.036Z,24.90
2018-07-03T20:13:27.848Z,24.90
2018-07-03T20:15:54.788Z,24.90
2018-07-03T20:18:21.570Z,24.80
2018-07-03T20:20:48.364Z,24.80
2018-07-03T20:23:15.480Z,24.80
2018-07-03T20:25:42.303Z,24.80
2018-07-03T20:28:09.990Z,24.80
2018-07-03T20:30:36.868Z,24.80
2018-07-03T20:33:04.390Z,24.80
2018-07-03T20:35:31.229Z,24.80
2018-07-03T20:38:00.155Z,24.70
2018-07-03T20:40:26.987Z,24.70
2018-07-03T20:42:55.663Z,24.70
2018-07-03T20:45:22.435Z,24.70
2018-07-03T20:47:49.284Z,24.60
2018-07-03T20:50:16.865Z,24.60
2018-07-03T20:52:44.258Z,24.60
2018-07-03T20:55:11.110Z,24.60
2018-07-03T20:57:37.841Z,24.60
2018-07-03T21:00:04.682Z,24.50
2018-07-03T21:02:31.493Z,24.50
2018-07-03T21:04:58.477Z,24.50
2018-07-03T21:07:25.241Z,24.40
2018-07-03T21:09:52.690Z,24.40
2018-07-03T21:12:19.536Z,24.40
2018-07-03T21:14:46.448Z,24.40
2018-07-03T21:17:13.188Z,24.40
2018-07-03T21:19:39.926Z,24.30
2018-07-03T21:22:06.694Z,24.30
2018-07-03T21:24:34.005Z,24.30
2018-07-03T21:27:01.598Z,24.30
2018-07-03T21:29:28.389Z,24.20
2018-07-03T21:31:55.261Z,24.20
2018-07-03T21:34:22.040Z,24.20
2018-07-03T21:36:48.765Z,24.20
2018-07-03T21:39:15.580Z,24.20
2018-07-03T21:41:42.315Z,24.10
2018-07-03T21:44:09.367Z,24.10
2018-07-03T21:46:36.167Z,24.10
2018-07-03T21:49:03.006Z,24.10
2018-07-03T21:51:29.851Z,24.10
2018-07-03T21:53:56.569Z,24.00
2018-07-03T21:56:23.323Z,24.00
2018-07-03T21:58:50.650Z,24.00
2018-07-03T22:01:17.420Z,23.90
2018-07-03T22:03:44.257Z,23.90
2018-07-03T22:06:11.091Z,23.90
2018-07-03T22:08:37.859Z,23.90
2018-07-03T22:11:04.633Z,23.90
2018-07-03T22:13:31.351Z,23.90
2018-07-03T22:15:58.223Z,23.80
2018-07-03T22:18:24.989Z,23.80
2018-07-03T22:20:51.804Z,23.80
2018-07-03T22:23:18.560Z,23.80
2018-07-03T22:25:45.306Z,23.80
2018-07-03T22:28:12.396Z,23.80
2018-07-03T22:30:39.112Z,23.70
2018-07-03T22:33:05.870Z,23.70
2018-07-03T22:35:33.870Z,23.70
2018-07-03T22:38:00.766Z,23.70
2018-07-03T22:40:27.600Z,23.60
2018-07-03T22:42:54.343Z,23.60
2018-07-03T22:45:21.023Z,23.60
2018-07-03T22:47:47.780Z,23.60
2018-07-03T22:50:14.594Z,23.60
2018-07-03T22:52:41.455Z,23.30
2018-07-03T22:55:08.316Z,23.50
2018-07-03T22:57:35.166Z,23.50
2018-07-03T23:00:02.021Z,23.50
2018-07-03T23:02:28.818Z,23.50
2018-07-03T23:04:55.588Z,23.50
2018-07-03T23:07:22.400Z,23.50
2018-07-03T23:09:49.167Z,23.40
2018-07-03T23:12:19.441Z,23.40
2018-07-03T23:14:46.356Z,23.40
2018-07-03T23:17:13.182Z,23.40
2018-07-03T23:19:40.266Z,23.30
2018-07-03T23:22:07.064Z,23.30
2018-07-03T23:24:33.786Z,23.30
2018-07-03T23:27:00.534Z,23.30
2018-07-03T23:29:27.315Z,23.30
2018-07-03T23:31:54.099Z,23.30
2018-07-03T23:34:20.992Z,23.20
2018-07-03T23:36:47.731Z,23.20
2018-07-03T23:39:14.487Z,23.20
2018-07-03T23:41:41.382Z,23.20
2018-07-03T23:44:08.143Z,23.20
2018-07-03T23:46:34.903Z,23.20
2018-07-03T23:49:01.666Z,23.10
2018-07-03T23:51:28.429Z,23.10
2018-07-03T23:53:55.351Z,23.10
2018-07-03T23:56:22.143Z,23.10
2018-07-03T23:58:49.313Z,23.10
